MST,Max TemperatureF,Mean TemperatureF,Min TemperatureF,Max Dew PointF,MeanDew PointF,Min DewpointF,Max Humidity, Mean Humidity, Min Humidity, Max Sea Level PressureIn, Mean Sea Level PressureIn, Min Sea Level PressureIn, Max VisibilityMiles, Mean VisibilityMiles, Min VisibilityMiles, Max Wind SpeedMPH, Mean Wind SpeedMPH, Max Gust SpeedMPH,PrecipitationIn, CloudCover, Events, WindDirDegrees
2011-11-1,45,39,33,34,31,23,100,73,45,30.36,30.15,29.94,10,9,2,33,13,41,0.03,8,Rain-Snow,335
2011-11-2,45,32,18,34,21,13,100,64,28,30.54,30.44,30.30,10,10,9,21,8,25,T,2,Rain,341
2011-11-3,55,34,13,25,16,5,100,56,12,30.34,30.08,29.83,10,10,10,32,15,40,0.00,0,,151
2011-11-4,69,48,27,31,26,21,85,51,17,29.82,29.71,29.56,10,10,10,22,12,29,0.00,0,,157
2011-11-5,51,41,31,32,27,23,89,64,39,29.54,29.41,29.29,10,10,10,36,14,43,0.00,1,,8
2011-11-6,46,34,21,24,18,14,81,55,28,30.10,29.84,29.57,10,10,10,23,10,30,0.00,0,,297
2011-11-7,44,30,16,25,18,12,81,55,29,30.25,30.16,30.06,10,10,10,18,9,23,0.00,0,,188
2011-11-8,49,34,18,27,19,14,91,60,28,30.34,30.21,30.07,10,10,10,20,8,29,0.00,1,,335
2011-11-9,47,34,20,29,20,14,85,57,28,30.49,30.41,30.31,10,9,2,28,12,36,T,2,Snow,327
2011-11-10,55,36,16,20,15,10,80,51,22,30.36,30.09,29.83,10,10,10,13,3,15,0.00,0,,145
2011-11-11,64,45,26,16,10,6,55,33,11,29.88,29.70,29.46,10,10,10,15,5,20,0.00,0,,269
2011-11-12,58,42,26,35,19,11,73,46,19,29.42,29.34,29.26,10,10,9,35,8,40,T,2,Rain,318
2011-11-13,54,42,30,33,23,14,96,58,20,29.54,29.44,29.36,10,10,10,35,10,43,0.01,3,,282
2011-11-14,51,37,23,27,22,15,85,56,26,29.66,29.57,29.48,10,10,10,25,6,35,0.00,2,,316
2011-11-15,37,28,19,23,11,3,81,54,26,30.17,29.95,29.62,10,10,10,30,12,38,T,4,,328
2011-11-16,36,23,10,16,4,-3,76,48,20,30.36,30.28,30.17,10,10,10,25,10,31,0.00,0,,302
2011-11-17,55,31,7,23,12,-2,76,49,22,30.23,29.85,29.58,10,10,10,25,7,33,0.00,0,,124
2011-11-18,40,30,19,27,22,16,92,70,48,29.87,29.73,29.60,10,4,0,23,13,29,0.20,7,Fog-Snow,2
2011-11-19,19,6,-7,16,5,-8,95,86,76,30.31,29.99,29.75,10,3,0,17,7,20,0.41,6,Fog-Snow,8
2011-11-20,21,8,-6,15,4,-5,92,83,73,30.30,30.15,29.97,10,8,2,13,3,14,T,2,Snow,114
2011-11-21,34,19,4,26,14,5,92,84,75,30.19,30.10,29.92,10,10,7,16,4,18,0.00,0,,344
2011-11-22,42,33,24,28,23,19,81,68,54,30.12,30.04,29.89,10,10,10,13,6,15,0.00,0,,329
2011-11-23,55,41,26,30,24,20,75,51,26,30.12,29.99,29.81,10,10,10,15,3,21,0.00,0,,133
2011-11-24,56,45,34,29,26,24,64,50,35,29.81,29.74,29.65,10,10,10,12,4,15,0.00,0,,123
2011-11-25,52,44,35,34,28,19,73,57,41,30.09,29.75,29.62,10,10,10,40,16,51,0.01,3,Rain-Snow,337
2011-11-26,39,28,17,23,12,5,67,47,27,30.57,30.44,30.11,10,10,10,47,24,58,0.00,0,,320
2011-11-27,58,38,17,26,19,7,75,50,25,30.47,30.23,29.97,10,10,10,13,3,15,0.00,0,,142
2011-11-28,57,41,24,31,25,21,88,58,27,30.43,30.22,29.94,10,10,10,21,11,24,0.00,0,,332
2011-11-29,51,38,25,32,27,23,92,67,41,30.38,30.22,29.97,10,10,10,10,3,13,0.00,0,,145
2011-11-30,47,38,28,30,28,25,92,69,45,30.33,30.02,29.82,10,7,1,21,11,26,0.05,6,Rain-Snow,5